CFG002 EDDH-HEGN
Flight info
| Callsign | CFG002 |
|---|---|
| Flight time | 4h 26m |
| Altitude | 31000 |
| Route | AMLUH2G AMLUH M852 DENIX DCT ZUCKA DCT TABAT DCT AKOSI DCT SIMBA DCT INGID DCT DARZA/N0455F330 DCT AIOSA DCT LATAN DCT SALUN N705 MMA P751 DASUM/N0461F350 Y234 FYM M872 BOPOB BOPOB1A |
| Aircraft | A321/M-SDE3FGHIRWY/LB1 |
Departure
| Time | 2026-04-26 14:23 |
|---|---|
| Airport | Hamburg Helmut Schmidt Airport (EDDH) |
Arrival
| Time | 2026-04-26 18:49 |
|---|---|
| Airport | Hurghada International Airport (HEGN) |
| Time | Latitude | Longitude | Altitude | Speed | Heading |
|---|---|---|---|---|---|
| 2026-04-26 13:32 | 53.63112 | 10.00374 | 49 ft | 0 kts | 87° |
| 2026-04-26 14:15 | 53.63112 | 10.00366 | 48 ft | 3 kts | 87° |
| 2026-04-26 14:16 | 53.63110 | 10.00327 | 46 ft | 3 kts | 87° |
| 2026-04-26 14:16 | 53.63109 | 10.00288 | 47 ft | 3 kts | 87° |
| 2026-04-26 14:16 | 53.63108 | 10.00256 | 48 ft | 3 kts | 91° |
| 2026-04-26 14:16 | 53.63112 | 10.00219 | 48 ft | 3 kts | 116° |
| 2026-04-26 14:17 | 53.63124 | 10.00192 | 48 ft | 3 kts | 163° |
| 2026-04-26 14:17 | 53.63131 | 10.00189 | 48 ft | 0 kts | 175° |
| 2026-04-26 14:20 | 53.63118 | 10.00191 | 48 ft | 6 kts | 175° |
| 2026-04-26 14:20 | 53.63059 | 10.00173 | 46 ft | 11 kts | 209° |
| 2026-04-26 14:20 | 53.62999 | 10.00109 | 48 ft | 9 kts | 212° |
| 2026-04-26 14:20 | 53.62949 | 10.00055 | 45 ft | 8 kts | 213° |
| 2026-04-26 14:21 | 53.62914 | 9.99973 | 46 ft | 10 kts | 242° |
| 2026-04-26 14:21 | 53.62876 | 9.99846 | 43 ft | 14 kts | 243° |
| 2026-04-26 14:21 | 53.62872 | 9.99744 | 45 ft | 8 kts | 319° |
| 2026-04-26 14:21 | 53.62884 | 9.99731 | 45 ft | 2 kts | 330° |
| 2026-04-26 14:22 | 53.63038 | 9.99601 | 45 ft | 59 kts | 332° |
| 2026-04-26 14:22 | 53.63598 | 9.99116 | 48 ft | 120 kts | 333° |
| 2026-04-26 14:22 | 53.64473 | 9.98359 | 51 ft | 165 kts | 333° |
| 2026-04-26 14:22 | 53.65603 | 9.97404 | 305 ft | 185 kts | 333° |
| 2026-04-26 14:23 | 53.66740 | 9.96423 | 1006 ft | 182 kts | 333° |
| 2026-04-26 14:23 | 53.67873 | 9.95427 | 1471 ft | 190 kts | 333° |
| 2026-04-26 14:23 | 53.69150 | 9.94606 | 1613 ft | 208 kts | 354° |
| 2026-04-26 14:23 | 53.70604 | 9.94650 | 2092 ft | 211 kts | 1° |
| 2026-04-26 14:24 | 53.72091 | 9.94816 | 2587 ft | 217 kts | 14° |
| 2026-04-26 14:24 | 53.73356 | 9.96162 | 3113 ft | 220 kts | 51° |
| 2026-04-26 14:24 | 53.73963 | 9.98494 | 3670 ft | 219 kts | 82° |
| 2026-04-26 14:24 | 53.74114 | 10.01059 | 4181 ft | 221 kts | 84° |
| 2026-04-26 14:25 | 53.73993 | 10.03668 | 4612 ft | 226 kts | 104° |
| 2026-04-26 14:25 | 53.73379 | 10.06172 | 4884 ft | 242 kts | 121° |
| 2026-04-26 14:25 | 53.72482 | 10.08750 | 5056 ft | 264 kts | 120° |
| 2026-04-26 14:25 | 53.71557 | 10.11496 | 5058 ft | 271 kts | 119° |
| 2026-04-26 14:26 | 53.70635 | 10.14272 | 5010 ft | 271 kts | 119° |
| 2026-04-26 14:26 | 53.69696 | 10.17074 | 5146 ft | 280 kts | 122° |
| 2026-04-26 14:26 | 53.68457 | 10.19544 | 5970 ft | 274 kts | 141° |
| 2026-04-26 14:26 | 53.66797 | 10.21085 | 6612 ft | 273 kts | 166° |
| 2026-04-26 14:27 | 53.64938 | 10.21806 | 7215 ft | 276 kts | 169° |
| 2026-04-26 14:27 | 53.63041 | 10.22478 | 7775 ft | 280 kts | 169° |
| 2026-04-26 14:27 | 53.61121 | 10.23141 | 8377 ft | 283 kts | 169° |
| 2026-04-26 14:27 | 53.59189 | 10.23815 | 8971 ft | 285 kts | 169° |
| 2026-04-26 14:28 | 53.57230 | 10.24505 | 9463 ft | 291 kts | 169° |
| 2026-04-26 14:28 | 53.55237 | 10.25218 | 9983 ft | 295 kts | 169° |
| 2026-04-26 14:28 | 53.53220 | 10.25944 | 10504 ft | 298 kts | 169° |
| 2026-04-26 14:28 | 53.51150 | 10.26698 | 10752 ft | 314 kts | 169° |
| 2026-04-26 14:29 | 53.48962 | 10.27485 | 10949 ft | 329 kts | 169° |
| 2026-04-26 14:29 | 53.46666 | 10.28292 | 11120 ft | 346 kts | 170° |
| 2026-04-26 14:29 | 53.44257 | 10.29139 | 11250 ft | 363 kts | 169° |
| 2026-04-26 14:29 | 53.41734 | 10.30030 | 11382 ft | 378 kts | 169° |
| 2026-04-26 14:30 | 53.39109 | 10.30963 | 11510 ft | 393 kts | 169° |
| 2026-04-26 14:30 | 53.36384 | 10.31929 | 11739 ft | 405 kts | 169° |
| 2026-04-26 14:30 | 53.33611 | 10.32913 | 12159 ft | 410 kts | 169° |
| 2026-04-26 14:30 | 53.30807 | 10.33911 | 12587 ft | 414 kts | 169° |
| 2026-04-26 14:31 | 53.27976 | 10.34918 | 13017 ft | 417 kts | 170° |
| 2026-04-26 14:31 | 53.25119 | 10.35930 | 13458 ft | 421 kts | 170° |
| 2026-04-26 14:31 | 53.22244 | 10.36945 | 13888 ft | 424 kts | 170° |
| 2026-04-26 14:31 | 53.19378 | 10.37951 | 14311 ft | 426 kts | 170° |
| 2026-04-26 14:32 | 53.16458 | 10.38977 | 14718 ft | 430 kts | 170° |
| 2026-04-26 14:32 | 53.13527 | 10.40010 | 15134 ft | 431 kts | 170° |
| 2026-04-26 14:32 | 53.10586 | 10.41048 | 15535 ft | 434 kts | 170° |
| 2026-04-26 14:32 | 53.07621 | 10.42089 | 15951 ft | 436 kts | 170° |
| 2026-04-26 14:33 | 53.04644 | 10.43134 | 16337 ft | 438 kts | 170° |
| 2026-04-26 14:33 | 53.01650 | 10.44183 | 16729 ft | 441 kts | 171° |
| 2026-04-26 14:33 | 52.98639 | 10.45233 | 17100 ft | 443 kts | 171° |
| 2026-04-26 14:33 | 52.95613 | 10.46283 | 17480 ft | 445 kts | 171° |
| 2026-04-26 14:34 | 52.92580 | 10.47335 | 17850 ft | 447 kts | 171° |
| 2026-04-26 14:34 | 52.89520 | 10.48399 | 18208 ft | 450 kts | 171° |
| 2026-04-26 14:34 | 52.86455 | 10.49467 | 18551 ft | 452 kts | 171° |
| 2026-04-26 14:34 | 52.83369 | 10.50538 | 18905 ft | 454 kts | 171° |
| 2026-04-26 14:35 | 52.80274 | 10.51613 | 19264 ft | 455 kts | 171° |
| 2026-04-26 14:35 | 52.77168 | 10.52690 | 19615 ft | 457 kts | 171° |
| 2026-04-26 14:35 | 52.74042 | 10.53769 | 19952 ft | 459 kts | 171° |
| 2026-04-26 14:35 | 52.70908 | 10.54848 | 20302 ft | 461 kts | 171° |
| 2026-04-26 14:36 | 52.67765 | 10.55923 | 20628 ft | 463 kts | 171° |
| 2026-04-26 14:36 | 52.64606 | 10.57000 | 20942 ft | 464 kts | 171° |
| 2026-04-26 14:36 | 52.61440 | 10.58084 | 21241 ft | 466 kts | 171° |
| 2026-04-26 14:36 | 52.58261 | 10.59179 | 21549 ft | 468 kts | 171° |
| 2026-04-26 14:37 | 52.55064 | 10.60282 | 21847 ft | 470 kts | 171° |
| 2026-04-26 14:37 | 52.51907 | 10.61367 | 22138 ft | 471 kts | 171° |
| 2026-04-26 14:37 | 52.48694 | 10.62465 | 22439 ft | 472 kts | 171° |
| 2026-04-26 14:37 | 52.45471 | 10.63557 | 22726 ft | 474 kts | 171° |
| 2026-04-26 14:38 | 52.42239 | 10.64648 | 23004 ft | 476 kts | 171° |
| 2026-04-26 14:38 | 52.38987 | 10.65748 | 23264 ft | 478 kts | 171° |
| 2026-04-26 14:38 | 52.35726 | 10.66852 | 23555 ft | 479 kts | 171° |
| 2026-04-26 14:38 | 52.33519 | 10.67601 | 23746 ft | 480 kts | 171° |
| 2026-04-26 14:39 | 52.29182 | 10.69075 | 24094 ft | 483 kts | 171° |
| 2026-04-26 14:39 | 52.25889 | 10.70193 | 24345 ft | 484 kts | 171° |
| 2026-04-26 14:39 | 52.22588 | 10.71306 | 24606 ft | 485 kts | 171° |
| 2026-04-26 14:39 | 52.19276 | 10.72414 | 24875 ft | 486 kts | 171° |
| 2026-04-26 14:40 | 52.15961 | 10.73520 | 25125 ft | 487 kts | 171° |
| 2026-04-26 14:40 | 52.12616 | 10.74637 | 25415 ft | 487 kts | 171° |
| 2026-04-26 14:40 | 52.09317 | 10.75741 | 25790 ft | 486 kts | 171° |
| 2026-04-26 14:40 | 52.06011 | 10.76851 | 26147 ft | 485 kts | 171° |
| 2026-04-26 14:41 | 52.02715 | 10.77952 | 26483 ft | 483 kts | 171° |
| 2026-04-26 14:41 | 51.99423 | 10.79049 | 26833 ft | 482 kts | 171° |
| 2026-04-26 14:41 | 51.96150 | 10.80139 | 27186 ft | 480 kts | 171° |
| 2026-04-26 14:41 | 51.92893 | 10.81229 | 27591 ft | 476 kts | 171° |
| 2026-04-26 14:42 | 51.89653 | 10.82314 | 27919 ft | 474 kts | 171° |
| 2026-04-26 14:42 | 51.86428 | 10.83392 | 28236 ft | 472 kts | 172° |
| 2026-04-26 14:42 | 51.83211 | 10.84454 | 28537 ft | 471 kts | 172° |
| 2026-04-26 14:42 | 51.80010 | 10.85504 | 28844 ft | 470 kts | 172° |
| 2026-04-26 14:43 | 51.76805 | 10.86556 | 29154 ft | 468 kts | 172° |
| 2026-04-26 14:43 | 51.74694 | 10.87247 | 29346 ft | 467 kts | 172° |
| 2026-04-26 14:43 | 51.71514 | 10.88290 | 29633 ft | 466 kts | 172° |
| 2026-04-26 14:43 | 51.68343 | 10.89348 | 29911 ft | 466 kts | 170° |
| 2026-04-26 14:44 | 51.65236 | 10.90887 | 30169 ft | 469 kts | 163° |
| 2026-04-26 14:44 | 51.62174 | 10.92691 | 30422 ft | 468 kts | 163° |
| 2026-04-26 14:44 | 51.59118 | 10.94484 | 30686 ft | 467 kts | 163° |
| 2026-04-26 14:44 | 51.56076 | 10.96257 | 30934 ft | 466 kts | 163° |
| 2026-04-26 14:45 | 51.53016 | 10.98029 | 31190 ft | 465 kts | 164° |
| 2026-04-26 14:45 | 51.46912 | 11.01542 | 31324 ft | 467 kts | 164° |
| 2026-04-26 14:46 | 51.40794 | 11.05070 | 31325 ft | 468 kts | 164° |
| 2026-04-26 14:46 | 51.34665 | 11.08599 | 31308 ft | 468 kts | 164° |
| 2026-04-26 14:47 | 51.28543 | 11.12115 | 31303 ft | 468 kts | 164° |
| 2026-04-26 14:47 | 51.22420 | 11.15626 | 31297 ft | 468 kts | 164° |
| 2026-04-26 14:48 | 51.16297 | 11.19128 | 31301 ft | 468 kts | 164° |
| 2026-04-26 14:48 | 51.10163 | 11.22618 | 31294 ft | 468 kts | 164° |
| 2026-04-26 14:49 | 51.04050 | 11.26098 | 31304 ft | 467 kts | 164° |
| 2026-04-26 14:49 | 50.97966 | 11.29538 | 31297 ft | 467 kts | 164° |
| 2026-04-26 14:50 | 50.91847 | 11.32988 | 31296 ft | 467 kts | 164° |
| 2026-04-26 14:50 | 50.85728 | 11.36433 | 31294 ft | 467 kts | 164° |
| 2026-04-26 14:51 | 50.79618 | 11.39864 | 31294 ft | 467 kts | 164° |
| 2026-04-26 14:51 | 50.73490 | 11.43296 | 31293 ft | 466 kts | 164° |
| 2026-04-26 14:52 | 50.67370 | 11.46711 | 31292 ft | 467 kts | 164° |
| 2026-04-26 14:52 | 50.61253 | 11.50125 | 31297 ft | 466 kts | 164° |
| 2026-04-26 14:53 | 50.55143 | 11.53529 | 31290 ft | 466 kts | 163° |
| 2026-04-26 14:53 | 50.49113 | 11.57330 | 31285 ft | 468 kts | 160° |
| 2026-04-26 14:54 | 50.43153 | 11.61439 | 31283 ft | 467 kts | 159° |
| 2026-04-26 14:54 | 50.37197 | 11.65497 | 31280 ft | 466 kts | 160° |
| 2026-04-26 14:55 | 50.31258 | 11.69425 | 31274 ft | 466 kts | 160° |
| 2026-04-26 14:55 | 50.25264 | 11.73325 | 31270 ft | 467 kts | 160° |
| 2026-04-26 14:56 | 50.19278 | 11.77221 | 31266 ft | 466 kts | 160° |
| 2026-04-26 14:56 | 50.13288 | 11.81142 | 31264 ft | 467 kts | 160° |
| 2026-04-26 14:57 | 50.07300 | 11.85058 | 31261 ft | 467 kts | 160° |
| 2026-04-26 14:57 | 50.01311 | 11.88959 | 31255 ft | 467 kts | 160° |
| 2026-04-26 14:58 | 49.95319 | 11.92835 | 31250 ft | 467 kts | 161° |
| 2026-04-26 14:58 | 49.89321 | 11.96695 | 31244 ft | 467 kts | 160° |
| 2026-04-26 14:59 | 49.83321 | 12.00566 | 31241 ft | 467 kts | 160° |
| 2026-04-26 14:59 | 49.77323 | 12.04424 | 31239 ft | 467 kts | 160° |
| 2026-04-26 15:00 | 49.71321 | 12.08272 | 31235 ft | 467 kts | 161° |
| 2026-04-26 15:00 | 49.65324 | 12.12130 | 31232 ft | 466 kts | 160° |
| 2026-04-26 15:01 | 49.59358 | 12.16007 | 31228 ft | 467 kts | 160° |
| 2026-04-26 15:01 | 49.53344 | 12.19904 | 31227 ft | 467 kts | 160° |
| 2026-04-26 15:02 | 49.47347 | 12.23769 | 31228 ft | 468 kts | 160° |
| 2026-04-26 15:02 | 49.41351 | 12.27620 | 31227 ft | 468 kts | 160° |
| 2026-04-26 15:03 | 49.35335 | 12.31466 | 31226 ft | 468 kts | 160° |
| 2026-04-26 15:03 | 49.29319 | 12.35307 | 31224 ft | 468 kts | 160° |
| 2026-04-26 15:04 | 49.23305 | 12.39141 | 31225 ft | 468 kts | 160° |
| 2026-04-26 15:04 | 49.17321 | 12.42948 | 31225 ft | 469 kts | 160° |
| 2026-04-26 15:05 | 49.11295 | 12.46771 | 31227 ft | 469 kts | 160° |
| 2026-04-26 15:05 | 49.05263 | 12.50585 | 31230 ft | 469 kts | 160° |
| 2026-04-26 15:06 | 48.99227 | 12.54378 | 31232 ft | 469 kts | 160° |
| 2026-04-26 15:06 | 48.93183 | 12.58167 | 31233 ft | 470 kts | 160° |
| 2026-04-26 15:07 | 48.84128 | 12.63845 | 31235 ft | 470 kts | 160° |
| 2026-04-26 15:07 | 48.78090 | 12.67631 | 31233 ft | 470 kts | 160° |
| 2026-04-26 15:08 | 48.72043 | 12.71392 | 31230 ft | 469 kts | 160° |
| 2026-04-26 15:08 | 48.65997 | 12.75142 | 31228 ft | 470 kts | 160° |
| 2026-04-26 15:09 | 48.59953 | 12.78892 | 31227 ft | 470 kts | 160° |
| 2026-04-26 15:09 | 48.53901 | 12.82634 | 31228 ft | 470 kts | 160° |
| 2026-04-26 15:10 | 48.48873 | 12.85726 | 31221 ft | 470 kts | 160° |
| 2026-04-26 15:10 | 48.41808 | 12.90077 | 31220 ft | 469 kts | 160° |
| 2026-04-26 15:11 | 48.35757 | 12.93797 | 31221 ft | 470 kts | 160° |
| 2026-04-26 15:11 | 48.29710 | 12.97492 | 31220 ft | 469 kts | 160° |
| 2026-04-26 15:12 | 48.23660 | 13.01181 | 31217 ft | 469 kts | 160° |
| 2026-04-26 15:12 | 48.17674 | 13.05127 | 31217 ft | 470 kts | 157° |
| 2026-04-26 15:13 | 48.11791 | 13.09415 | 31215 ft | 470 kts | 156° |
| 2026-04-26 15:13 | 48.05914 | 13.13712 | 31204 ft | 470 kts | 156° |
| 2026-04-26 15:14 | 48.00007 | 13.17886 | 31203 ft | 470 kts | 157° |
| 2026-04-26 15:14 | 47.94127 | 13.21986 | 31203 ft | 469 kts | 157° |
| 2026-04-26 15:15 | 47.88217 | 13.26101 | 31204 ft | 469 kts | 157° |
| 2026-04-26 15:15 | 47.82312 | 13.30233 | 31201 ft | 468 kts | 156° |
| 2026-04-26 15:16 | 47.76417 | 13.34361 | 31197 ft | 468 kts | 156° |
| 2026-04-26 15:16 | 47.70514 | 13.38469 | 31198 ft | 468 kts | 157° |
| 2026-04-26 15:17 | 47.65611 | 13.41864 | 31200 ft | 468 kts | 157° |
| 2026-04-26 15:17 | 47.58724 | 13.46640 | 31197 ft | 468 kts | 156° |
| 2026-04-26 15:18 | 47.52827 | 13.50714 | 31194 ft | 468 kts | 157° |
| 2026-04-26 15:18 | 47.46922 | 13.54767 | 31192 ft | 468 kts | 157° |
| 2026-04-26 15:19 | 47.41018 | 13.58829 | 31193 ft | 468 kts | 157° |
| 2026-04-26 15:19 | 47.35107 | 13.62871 | 31189 ft | 468 kts | 157° |
| 2026-04-26 15:20 | 47.29198 | 13.66909 | 31180 ft | 468 kts | 157° |
| 2026-04-26 15:20 | 47.23324 | 13.71042 | 31176 ft | 468 kts | 154° |
| 2026-04-26 15:21 | 47.17604 | 13.75493 | 31162 ft | 468 kts | 153° |
| 2026-04-26 15:21 | 47.11890 | 13.80049 | 31168 ft | 468 kts | 153° |
| 2026-04-26 15:22 | 47.06104 | 13.84542 | 31145 ft | 469 kts | 154° |
| 2026-04-26 15:22 | 47.00316 | 13.88937 | 31141 ft | 468 kts | 154° |
| 2026-04-26 15:23 | 46.94582 | 13.93292 | 31134 ft | 468 kts | 154° |
| 2026-04-26 15:23 | 46.88768 | 13.97722 | 31126 ft | 467 kts | 154° |
| 2026-04-26 15:24 | 46.83009 | 14.02110 | 31117 ft | 467 kts | 154° |
| 2026-04-26 15:24 | 46.77230 | 14.06498 | 31106 ft | 468 kts | 154° |
| 2026-04-26 15:25 | 46.72423 | 14.10126 | 31099 ft | 468 kts | 154° |
| 2026-04-26 15:25 | 46.65718 | 14.15176 | 31095 ft | 468 kts | 154° |
| 2026-04-26 15:26 | 46.59926 | 14.19540 | 31093 ft | 468 kts | 154° |
| 2026-04-26 15:26 | 46.54151 | 14.23880 | 31087 ft | 468 kts | 154° |
| 2026-04-26 15:27 | 46.48363 | 14.28222 | 31092 ft | 468 kts | 154° |
| 2026-04-26 15:27 | 46.42582 | 14.32543 | 31092 ft | 467 kts | 154° |
| 2026-04-26 15:28 | 46.36797 | 14.36848 | 31090 ft | 467 kts | 154° |
| 2026-04-26 15:28 | 46.31023 | 14.41146 | 31088 ft | 467 kts | 154° |
| 2026-04-26 15:29 | 46.25235 | 14.45444 | 31087 ft | 467 kts | 154° |
| 2026-04-26 15:30 | 46.13668 | 14.54011 | 31078 ft | 468 kts | 154° |
| 2026-04-26 15:30 | 46.07872 | 14.58271 | 31079 ft | 468 kts | 155° |
| 2026-04-26 15:31 | 45.99170 | 14.64650 | 31096 ft | 468 kts | 155° |
| 2026-04-26 15:32 | 45.92433 | 14.69593 | 31111 ft | 467 kts | 154° |
| 2026-04-26 15:32 | 45.85665 | 14.74540 | 31106 ft | 467 kts | 155° |
| 2026-04-26 15:33 | 45.79875 | 14.78753 | 31104 ft | 467 kts | 154° |
| 2026-04-26 15:33 | 45.74082 | 14.82959 | 31102 ft | 466 kts | 155° |
| 2026-04-26 15:34 | 45.68294 | 14.87153 | 31097 ft | 466 kts | 154° |
| 2026-04-26 15:34 | 45.62511 | 14.91352 | 31092 ft | 467 kts | 154° |
| 2026-04-26 15:35 | 45.56710 | 14.95534 | 31099 ft | 467 kts | 154° |
| 2026-04-26 15:35 | 45.50903 | 14.99699 | 31094 ft | 467 kts | 155° |
| 2026-04-26 15:36 | 45.45062 | 15.03778 | 31090 ft | 467 kts | 156° |
| 2026-04-26 15:36 | 45.39178 | 15.07681 | 31086 ft | 467 kts | 156° |
| 2026-04-26 15:37 | 45.33284 | 15.11555 | 31084 ft | 467 kts | 156° |
| 2026-04-26 15:37 | 45.27445 | 15.15435 | 31088 ft | 467 kts | 156° |
| 2026-04-26 15:38 | 45.21564 | 15.19360 | 31088 ft | 467 kts | 156° |
| 2026-04-26 15:38 | 45.15681 | 15.23272 | 31081 ft | 467 kts | 156° |
| 2026-04-26 15:39 | 45.09794 | 15.27168 | 31089 ft | 467 kts | 156° |
| 2026-04-26 15:39 | 45.04859 | 15.30429 | 31098 ft | 467 kts | 156° |
| 2026-04-26 15:40 | 44.98016 | 15.34949 | 31093 ft | 467 kts | 156° |
| 2026-04-26 15:40 | 44.92132 | 15.38827 | 31093 ft | 467 kts | 156° |
| 2026-04-26 15:41 | 44.86237 | 15.42687 | 31092 ft | 467 kts | 156° |
| 2026-04-26 15:41 | 44.80346 | 15.46527 | 31094 ft | 467 kts | 156° |
| 2026-04-26 15:42 | 44.74449 | 15.50379 | 31092 ft | 467 kts | 156° |
| 2026-04-26 15:42 | 44.68552 | 15.54237 | 31093 ft | 468 kts | 156° |
| 2026-04-26 15:43 | 44.62647 | 15.58074 | 31095 ft | 467 kts | 156° |
| 2026-04-26 15:44 | 44.53795 | 15.63803 | 31097 ft | 467 kts | 156° |
| 2026-04-26 15:44 | 44.44940 | 15.69522 | 31090 ft | 467 kts | 156° |
| 2026-04-26 15:45 | 44.36090 | 15.75221 | 31093 ft | 467 kts | 156° |
| 2026-04-26 15:46 | 44.27234 | 15.80891 | 31093 ft | 466 kts | 156° |
| 2026-04-26 15:46 | 44.22337 | 15.84031 | 31094 ft | 466 kts | 156° |
| 2026-04-26 15:47 | 44.12490 | 15.90316 | 31093 ft | 466 kts | 156° |
| 2026-04-26 15:48 | 44.06628 | 15.94043 | 31090 ft | 466 kts | 156° |
| 2026-04-26 15:48 | 44.00735 | 15.97794 | 31087 ft | 466 kts | 156° |
| 2026-04-26 15:49 | 43.94836 | 16.01535 | 31094 ft | 466 kts | 156° |
| 2026-04-26 15:49 | 43.88940 | 16.05265 | 31089 ft | 466 kts | 156° |
| 2026-04-26 15:50 | 43.83038 | 16.08983 | 31082 ft | 466 kts | 156° |
| 2026-04-26 15:50 | 43.77136 | 16.12691 | 31078 ft | 466 kts | 156° |
| 2026-04-26 15:51 | 43.71231 | 16.16393 | 31084 ft | 466 kts | 156° |
| 2026-04-26 15:51 | 43.65322 | 16.20100 | 31078 ft | 466 kts | 156° |
| 2026-04-26 15:52 | 43.59405 | 16.23809 | 31085 ft | 468 kts | 156° |
| 2026-04-26 15:52 | 43.53482 | 16.27505 | 31081 ft | 467 kts | 156° |
| 2026-04-26 15:53 | 43.47564 | 16.31202 | 31090 ft | 467 kts | 156° |
| 2026-04-26 15:53 | 43.41681 | 16.34851 | 31083 ft | 467 kts | 156° |
| 2026-04-26 15:54 | 43.35722 | 16.38542 | 31086 ft | 467 kts | 156° |
| 2026-04-26 15:54 | 43.29832 | 16.42190 | 31084 ft | 467 kts | 156° |
| 2026-04-26 15:55 | 43.23903 | 16.45854 | 31079 ft | 468 kts | 156° |
| 2026-04-26 15:55 | 43.17970 | 16.49511 | 31081 ft | 468 kts | 157° |
| 2026-04-26 15:56 | 43.12035 | 16.53155 | 31083 ft | 467 kts | 157° |
| 2026-04-26 15:56 | 43.06106 | 16.56797 | 31083 ft | 467 kts | 157° |
| 2026-04-26 15:57 | 43.00165 | 16.60435 | 31078 ft | 468 kts | 157° |
| 2026-04-26 15:57 | 42.94214 | 16.64063 | 31077 ft | 468 kts | 157° |
| 2026-04-26 15:58 | 42.88256 | 16.67685 | 31068 ft | 469 kts | 157° |
| 2026-04-26 15:58 | 42.82298 | 16.71312 | 31078 ft | 469 kts | 157° |
| 2026-04-26 15:59 | 42.76349 | 16.74922 | 31080 ft | 468 kts | 157° |
| 2026-04-26 15:59 | 42.70393 | 16.78524 | 31075 ft | 469 kts | 157° |
| 2026-04-26 16:00 | 42.64438 | 16.82130 | 31075 ft | 469 kts | 158° |
| 2026-04-26 16:00 | 42.58476 | 16.85733 | 31078 ft | 469 kts | 158° |
| 2026-04-26 16:01 | 42.52507 | 16.89330 | 31075 ft | 470 kts | 158° |
| 2026-04-26 16:01 | 42.46534 | 16.92910 | 31077 ft | 469 kts | 158° |
| 2026-04-26 16:02 | 42.40558 | 16.96487 | 31077 ft | 470 kts | 158° |
| 2026-04-26 16:02 | 42.34612 | 17.00044 | 31080 ft | 470 kts | 158° |
| 2026-04-26 16:03 | 42.28600 | 17.03639 | 31087 ft | 470 kts | 158° |
| 2026-04-26 16:03 | 42.22656 | 17.07177 | 31088 ft | 470 kts | 158° |
| 2026-04-26 16:04 | 42.16678 | 17.10721 | 31086 ft | 469 kts | 158° |
| 2026-04-26 16:04 | 42.10701 | 17.14267 | 31091 ft | 470 kts | 158° |
| 2026-04-26 16:05 | 42.04723 | 17.17809 | 31095 ft | 469 kts | 158° |
| 2026-04-26 16:05 | 41.98746 | 17.21352 | 31092 ft | 469 kts | 158° |
| 2026-04-26 16:06 | 41.92768 | 17.24881 | 31099 ft | 469 kts | 158° |
| 2026-04-26 16:06 | 41.86888 | 17.28711 | 31093 ft | 470 kts | 154° |
| 2026-04-26 16:07 | 41.81121 | 17.32869 | 31094 ft | 471 kts | 153° |
| 2026-04-26 16:07 | 41.75344 | 17.37000 | 31100 ft | 471 kts | 154° |
| 2026-04-26 16:08 | 41.69527 | 17.41023 | 31110 ft | 470 kts | 155° |
| 2026-04-26 16:08 | 41.63696 | 17.45000 | 31104 ft | 470 kts | 155° |
| 2026-04-26 16:09 | 41.57877 | 17.48986 | 31108 ft | 470 kts | 155° |
| 2026-04-26 16:09 | 41.52064 | 17.52983 | 31107 ft | 470 kts | 155° |
| 2026-04-26 16:10 | 41.46248 | 17.56965 | 31108 ft | 470 kts | 155° |
| 2026-04-26 16:10 | 41.40474 | 17.60910 | 31111 ft | 469 kts | 155° |
| 2026-04-26 16:11 | 41.34662 | 17.64879 | 31109 ft | 469 kts | 155° |
| 2026-04-26 16:11 | 41.28852 | 17.68841 | 31109 ft | 469 kts | 155° |
| 2026-04-26 16:12 | 41.23040 | 17.72777 | 31106 ft | 469 kts | 155° |
| 2026-04-26 16:12 | 41.14310 | 17.78681 | 31102 ft | 469 kts | 155° |
| 2026-04-26 16:13 | 41.08496 | 17.82609 | 31100 ft | 469 kts | 155° |
| 2026-04-26 16:13 | 41.02680 | 17.86529 | 31107 ft | 469 kts | 155° |
| 2026-04-26 16:14 | 40.96873 | 17.90443 | 31108 ft | 468 kts | 155° |
| 2026-04-26 16:15 | 40.88158 | 17.96293 | 31101 ft | 467 kts | 155° |
| 2026-04-26 16:15 | 40.82362 | 18.00164 | 31092 ft | 467 kts | 155° |
| 2026-04-26 16:16 | 40.73672 | 18.05965 | 31084 ft | 466 kts | 155° |
| 2026-04-26 16:16 | 40.67878 | 18.09835 | 31084 ft | 467 kts | 155° |
| 2026-04-26 16:17 | 40.62086 | 18.13697 | 31079 ft | 467 kts | 155° |
| 2026-04-26 16:17 | 40.56285 | 18.17553 | 31083 ft | 467 kts | 155° |
| 2026-04-26 16:18 | 40.47583 | 18.23304 | 31083 ft | 467 kts | 155° |
| 2026-04-26 16:19 | 40.38883 | 18.29052 | 31089 ft | 467 kts | 155° |
| 2026-04-26 16:20 | 40.30183 | 18.34791 | 31090 ft | 466 kts | 156° |
| 2026-04-26 16:20 | 40.22460 | 18.39853 | 31094 ft | 466 kts | 156° |
| 2026-04-26 16:21 | 40.16659 | 18.43646 | 31098 ft | 466 kts | 156° |
| 2026-04-26 16:21 | 40.10857 | 18.47435 | 31093 ft | 466 kts | 156° |
| 2026-04-26 16:22 | 40.05045 | 18.51226 | 31089 ft | 467 kts | 156° |
| 2026-04-26 16:22 | 39.99243 | 18.55011 | 31087 ft | 467 kts | 156° |
| 2026-04-26 16:23 | 39.93432 | 18.58790 | 31091 ft | 466 kts | 156° |
| 2026-04-26 16:23 | 39.87631 | 18.62553 | 31091 ft | 466 kts | 156° |
| 2026-04-26 16:24 | 39.81832 | 18.66310 | 31083 ft | 466 kts | 156° |
| 2026-04-26 16:24 | 39.76035 | 18.70060 | 31089 ft | 466 kts | 156° |
| 2026-04-26 16:25 | 39.70227 | 18.73809 | 31082 ft | 465 kts | 156° |
| 2026-04-26 16:25 | 39.64429 | 18.77544 | 31079 ft | 466 kts | 156° |
| 2026-04-26 16:26 | 39.58620 | 18.81271 | 31073 ft | 466 kts | 156° |
| 2026-04-26 16:26 | 39.52807 | 18.85000 | 31076 ft | 466 kts | 156° |
| 2026-04-26 16:27 | 39.47000 | 18.88734 | 31068 ft | 466 kts | 156° |
| 2026-04-26 16:27 | 39.41186 | 18.92467 | 31061 ft | 466 kts | 156° |
| 2026-04-26 16:28 | 39.35365 | 18.96173 | 31067 ft | 466 kts | 156° |
| 2026-04-26 16:28 | 39.29613 | 19.00060 | 31055 ft | 468 kts | 148° |
| 2026-04-26 16:29 | 39.24598 | 19.05369 | 31066 ft | 470 kts | 140° |
| 2026-04-26 16:29 | 39.19674 | 19.10934 | 31071 ft | 470 kts | 140° |
| 2026-04-26 16:30 | 39.14750 | 19.16483 | 31052 ft | 471 kts | 140° |
| 2026-04-26 16:30 | 39.09812 | 19.22030 | 31049 ft | 471 kts | 141° |
| 2026-04-26 16:31 | 39.04869 | 19.27567 | 31048 ft | 471 kts | 141° |
| 2026-04-26 16:31 | 38.99924 | 19.33094 | 31071 ft | 471 kts | 141° |
| 2026-04-26 16:32 | 38.95817 | 19.37680 | 31052 ft | 471 kts | 140° |
| 2026-04-26 16:32 | 38.90043 | 19.44124 | 31045 ft | 470 kts | 141° |
| 2026-04-26 16:33 | 38.85102 | 19.49629 | 31052 ft | 470 kts | 140° |
| 2026-04-26 16:33 | 38.80160 | 19.55131 | 31050 ft | 470 kts | 140° |
| 2026-04-26 16:34 | 38.75216 | 19.60614 | 31061 ft | 470 kts | 140° |
| 2026-04-26 16:34 | 38.70267 | 19.66092 | 31073 ft | 470 kts | 140° |
| 2026-04-26 16:35 | 38.65315 | 19.71562 | 31064 ft | 470 kts | 140° |
| 2026-04-26 16:35 | 38.60360 | 19.77017 | 31071 ft | 470 kts | 140° |
| 2026-04-26 16:36 | 38.55409 | 19.82462 | 31076 ft | 470 kts | 140° |
| 2026-04-26 16:36 | 38.50463 | 19.87913 | 31070 ft | 469 kts | 140° |
| 2026-04-26 16:37 | 38.45520 | 19.93342 | 31068 ft | 469 kts | 140° |
| 2026-04-26 16:37 | 38.41402 | 19.97848 | 31072 ft | 469 kts | 140° |
| 2026-04-26 16:38 | 38.35612 | 20.04167 | 31077 ft | 469 kts | 140° |
| 2026-04-26 16:38 | 38.30686 | 20.09533 | 31070 ft | 469 kts | 140° |
| 2026-04-26 16:39 | 38.25689 | 20.14972 | 31066 ft | 469 kts | 140° |
| 2026-04-26 16:39 | 38.20759 | 20.20331 | 31076 ft | 469 kts | 140° |
| 2026-04-26 16:40 | 38.15789 | 20.25725 | 31069 ft | 470 kts | 140° |
| 2026-04-26 16:40 | 38.10817 | 20.31111 | 31079 ft | 470 kts | 140° |
| 2026-04-26 16:41 | 38.05847 | 20.36491 | 31084 ft | 470 kts | 140° |
| 2026-04-26 16:41 | 38.00862 | 20.41869 | 31073 ft | 470 kts | 140° |
| 2026-04-26 16:42 | 37.95878 | 20.47226 | 31082 ft | 470 kts | 140° |
| 2026-04-26 16:42 | 37.90897 | 20.52572 | 31087 ft | 469 kts | 140° |
| 2026-04-26 16:43 | 37.85911 | 20.57929 | 31065 ft | 470 kts | 140° |
| 2026-04-26 16:43 | 37.80926 | 20.63272 | 31070 ft | 470 kts | 140° |
| 2026-04-26 16:44 | 37.75929 | 20.68615 | 31073 ft | 470 kts | 140° |
| 2026-04-26 16:44 | 37.70927 | 20.73949 | 31066 ft | 471 kts | 140° |
| 2026-04-26 16:45 | 37.65922 | 20.79283 | 31051 ft | 471 kts | 140° |
| 2026-04-26 16:45 | 37.60911 | 20.84603 | 31049 ft | 470 kts | 140° |
| 2026-04-26 16:46 | 37.55901 | 20.89912 | 31044 ft | 471 kts | 140° |
| 2026-04-26 16:46 | 37.50885 | 20.95219 | 31044 ft | 472 kts | 140° |
| 2026-04-26 16:47 | 37.45856 | 21.00540 | 31045 ft | 473 kts | 140° |
| 2026-04-26 16:47 | 37.40820 | 21.05861 | 31050 ft | 473 kts | 140° |
| 2026-04-26 16:48 | 37.35773 | 21.11176 | 31050 ft | 473 kts | 140° |
| 2026-04-26 16:48 | 37.30724 | 21.16487 | 31048 ft | 473 kts | 140° |
| 2026-04-26 16:49 | 37.25677 | 21.21789 | 31046 ft | 473 kts | 140° |
| 2026-04-26 16:49 | 37.20617 | 21.27090 | 31048 ft | 474 kts | 140° |
| 2026-04-26 16:50 | 37.15586 | 21.32338 | 31040 ft | 474 kts | 140° |
| 2026-04-26 16:50 | 37.10516 | 21.37615 | 31040 ft | 474 kts | 139° |
| 2026-04-26 16:51 | 37.05448 | 21.42904 | 31042 ft | 474 kts | 139° |
| 2026-04-26 16:51 | 37.00375 | 21.48186 | 31036 ft | 475 kts | 139° |
| 2026-04-26 16:52 | 36.96114 | 21.52605 | 31034 ft | 475 kts | 139° |
| 2026-04-26 16:52 | 36.90200 | 21.58735 | 31033 ft | 475 kts | 139° |
| 2026-04-26 16:53 | 36.85118 | 21.64002 | 31031 ft | 475 kts | 139° |
| 2026-04-26 16:53 | 36.80022 | 21.69263 | 31028 ft | 475 kts | 139° |
| 2026-04-26 16:54 | 36.74914 | 21.74516 | 31032 ft | 476 kts | 139° |
| 2026-04-26 16:54 | 36.69815 | 21.79766 | 31035 ft | 476 kts | 139° |
| 2026-04-26 16:55 | 36.64710 | 21.85009 | 31027 ft | 476 kts | 139° |
| 2026-04-26 16:55 | 36.59597 | 21.90244 | 31030 ft | 476 kts | 139° |
| 2026-04-26 16:56 | 36.51923 | 21.98097 | 31035 ft | 476 kts | 139° |
| 2026-04-26 16:57 | 36.46838 | 22.03295 | 31033 ft | 476 kts | 139° |
| 2026-04-26 16:57 | 36.39110 | 22.11162 | 31029 ft | 477 kts | 139° |
| 2026-04-26 16:58 | 36.35705 | 22.14619 | 31029 ft | 477 kts | 139° |
| 2026-04-26 16:59 | 36.26259 | 22.24197 | 31028 ft | 477 kts | 139° |
| 2026-04-26 17:00 | 36.15986 | 22.34591 | 31028 ft | 477 kts | 139° |
| 2026-04-26 17:00 | 36.08271 | 22.42365 | 31028 ft | 477 kts | 139° |
| 2026-04-26 17:01 | 36.03123 | 22.47545 | 31032 ft | 477 kts | 139° |
| 2026-04-26 17:01 | 35.97969 | 22.52718 | 31028 ft | 478 kts | 139° |
| 2026-04-26 17:02 | 35.92803 | 22.57890 | 31025 ft | 478 kts | 139° |
| 2026-04-26 17:02 | 35.87677 | 22.63026 | 31027 ft | 478 kts | 139° |
| 2026-04-26 17:03 | 35.82512 | 22.68181 | 31025 ft | 478 kts | 139° |
| 2026-04-26 17:03 | 35.77338 | 22.73337 | 31025 ft | 478 kts | 138° |
| 2026-04-26 17:04 | 35.72174 | 22.78483 | 31023 ft | 478 kts | 138° |
| 2026-04-26 17:04 | 35.66997 | 22.83620 | 31020 ft | 478 kts | 138° |
| 2026-04-26 17:05 | 35.61817 | 22.88756 | 31018 ft | 479 kts | 138° |
| 2026-04-26 17:05 | 35.56632 | 22.93895 | 31016 ft | 479 kts | 138° |
| 2026-04-26 17:06 | 35.51443 | 22.99027 | 31018 ft | 479 kts | 138° |
| 2026-04-26 17:06 | 35.46243 | 23.04155 | 31020 ft | 480 kts | 138° |
| 2026-04-26 17:07 | 35.41887 | 23.08445 | 31018 ft | 479 kts | 138° |
| 2026-04-26 17:07 | 35.36673 | 23.13566 | 31019 ft | 480 kts | 138° |
| 2026-04-26 17:08 | 35.31494 | 23.18645 | 31017 ft | 480 kts | 138° |
| 2026-04-26 17:08 | 35.26284 | 23.23763 | 31016 ft | 480 kts | 138° |
| 2026-04-26 17:09 | 35.21922 | 23.28047 | 31016 ft | 481 kts | 138° |
| 2026-04-26 17:09 | 35.15847 | 23.33981 | 31011 ft | 481 kts | 138° |
| 2026-04-26 17:10 | 35.10611 | 23.39077 | 31012 ft | 482 kts | 138° |
| 2026-04-26 17:10 | 35.05373 | 23.44178 | 31016 ft | 482 kts | 138° |
| 2026-04-26 17:11 | 35.00133 | 23.49274 | 31017 ft | 481 kts | 138° |
| 2026-04-26 17:11 | 34.94896 | 23.54362 | 31015 ft | 482 kts | 138° |
| 2026-04-26 17:12 | 34.87011 | 23.61996 | 31010 ft | 483 kts | 138° |
| 2026-04-26 17:13 | 34.79107 | 23.69623 | 31014 ft | 484 kts | 138° |
| 2026-04-26 17:14 | 34.71192 | 23.77254 | 31017 ft | 484 kts | 139° |
| 2026-04-26 17:14 | 34.63256 | 23.84872 | 31014 ft | 485 kts | 139° |
| 2026-04-26 17:15 | 34.55310 | 23.92491 | 31016 ft | 486 kts | 139° |
| 2026-04-26 17:16 | 34.50006 | 23.97565 | 31015 ft | 486 kts | 139° |
| 2026-04-26 17:16 | 34.44699 | 24.02635 | 31016 ft | 486 kts | 139° |
| 2026-04-26 17:17 | 34.39388 | 24.07704 | 31017 ft | 486 kts | 139° |
| 2026-04-26 17:17 | 34.34064 | 24.12763 | 31013 ft | 486 kts | 139° |
| 2026-04-26 17:18 | 34.28745 | 24.17820 | 31015 ft | 486 kts | 139° |
| 2026-04-26 17:18 | 34.23418 | 24.22882 | 31013 ft | 487 kts | 139° |
| 2026-04-26 17:19 | 34.15421 | 24.30448 | 31015 ft | 487 kts | 139° |
| 2026-04-26 17:19 | 34.10106 | 24.35460 | 31020 ft | 488 kts | 139° |
| 2026-04-26 17:20 | 34.05632 | 24.39682 | 31024 ft | 488 kts | 139° |
| 2026-04-26 17:20 | 33.99394 | 24.45579 | 31027 ft | 487 kts | 138° |
| 2026-04-26 17:21 | 33.94274 | 24.50890 | 31029 ft | 485 kts | 134° |
| 2026-04-26 17:21 | 33.89326 | 24.56423 | 31014 ft | 486 kts | 134° |
| 2026-04-26 17:22 | 33.84373 | 24.61889 | 31012 ft | 487 kts | 135° |
| 2026-04-26 17:22 | 33.79311 | 24.67309 | 31013 ft | 488 kts | 136° |
| 2026-04-26 17:23 | 33.74215 | 24.72703 | 31012 ft | 488 kts | 136° |
| 2026-04-26 17:23 | 33.69138 | 24.78131 | 31012 ft | 488 kts | 136° |
| 2026-04-26 17:24 | 33.64063 | 24.83555 | 31010 ft | 489 kts | 136° |
| 2026-04-26 17:24 | 33.58979 | 24.88976 | 31010 ft | 489 kts | 136° |
| 2026-04-26 17:25 | 33.53889 | 24.94389 | 31014 ft | 489 kts | 137° |
| 2026-04-26 17:25 | 33.48795 | 24.99787 | 31010 ft | 489 kts | 137° |
| 2026-04-26 17:26 | 33.43703 | 25.05182 | 31009 ft | 489 kts | 137° |
| 2026-04-26 17:26 | 33.38605 | 25.10587 | 31009 ft | 490 kts | 137° |
| 2026-04-26 17:27 | 33.33499 | 25.15993 | 31011 ft | 490 kts | 137° |
| 2026-04-26 17:27 | 33.28376 | 25.21383 | 31013 ft | 491 kts | 138° |
| 2026-04-26 17:28 | 33.23249 | 25.26766 | 31014 ft | 490 kts | 138° |
| 2026-04-26 17:28 | 33.18130 | 25.32153 | 31006 ft | 490 kts | 138° |
| 2026-04-26 17:29 | 33.13875 | 25.36623 | 31002 ft | 491 kts | 138° |
| 2026-04-26 17:29 | 33.07879 | 25.42914 | 31003 ft | 491 kts | 138° |
| 2026-04-26 17:30 | 33.02746 | 25.48281 | 31009 ft | 491 kts | 138° |
| 2026-04-26 17:30 | 32.97596 | 25.53649 | 31010 ft | 492 kts | 139° |
| 2026-04-26 17:31 | 32.92450 | 25.59014 | 31013 ft | 492 kts | 139° |
| 2026-04-26 17:31 | 32.87295 | 25.64394 | 31018 ft | 493 kts | 139° |
| 2026-04-26 17:32 | 32.82139 | 25.69765 | 31018 ft | 493 kts | 139° |
| 2026-04-26 17:32 | 32.76964 | 25.75112 | 31013 ft | 493 kts | 140° |
| 2026-04-26 17:33 | 32.71780 | 25.80460 | 31011 ft | 493 kts | 140° |
| 2026-04-26 17:34 | 32.64058 | 25.88460 | 31009 ft | 494 kts | 140° |
| 2026-04-26 17:34 | 32.58878 | 25.93819 | 31006 ft | 494 kts | 141° |
| 2026-04-26 17:35 | 32.53688 | 25.99165 | 31009 ft | 495 kts | 141° |
| 2026-04-26 17:35 | 32.48494 | 26.04510 | 31012 ft | 495 kts | 141° |
| 2026-04-26 17:36 | 32.43292 | 26.09853 | 31017 ft | 495 kts | 142° |
| 2026-04-26 17:36 | 32.38083 | 26.15186 | 31018 ft | 495 kts | 141° |
| 2026-04-26 17:37 | 32.32883 | 26.20515 | 31018 ft | 495 kts | 142° |
| 2026-04-26 17:37 | 32.27687 | 26.25833 | 31014 ft | 494 kts | 142° |
| 2026-04-26 17:38 | 32.19878 | 26.33791 | 31010 ft | 494 kts | 142° |
| 2026-04-26 17:38 | 32.14667 | 26.39104 | 31012 ft | 494 kts | 141° |
| 2026-04-26 17:39 | 32.09462 | 26.44398 | 31011 ft | 495 kts | 142° |
| 2026-04-26 17:39 | 32.04241 | 26.49686 | 31014 ft | 494 kts | 142° |
| 2026-04-26 17:40 | 32.00796 | 26.53181 | 31017 ft | 494 kts | 142° |
| 2026-04-26 17:40 | 31.93826 | 26.60248 | 31010 ft | 494 kts | 142° |
| 2026-04-26 17:41 | 31.88598 | 26.65527 | 31001 ft | 496 kts | 143° |
| 2026-04-26 17:41 | 31.83352 | 26.70819 | 31007 ft | 497 kts | 143° |
| 2026-04-26 17:42 | 31.78097 | 26.76116 | 31014 ft | 498 kts | 143° |
| 2026-04-26 17:42 | 31.72874 | 26.81368 | 31016 ft | 498 kts | 143° |
| 2026-04-26 17:43 | 31.67609 | 26.86646 | 31017 ft | 498 kts | 143° |
| 2026-04-26 17:43 | 31.62349 | 26.91917 | 31016 ft | 497 kts | 143° |
| 2026-04-26 17:44 | 31.57093 | 26.97191 | 31011 ft | 497 kts | 143° |
| 2026-04-26 17:44 | 31.51837 | 27.02451 | 31012 ft | 497 kts | 144° |
| 2026-04-26 17:45 | 31.46578 | 27.07698 | 31011 ft | 497 kts | 144° |
| 2026-04-26 17:45 | 31.41301 | 27.12952 | 31013 ft | 497 kts | 144° |
| 2026-04-26 17:46 | 31.36027 | 27.18191 | 31014 ft | 498 kts | 144° |
| 2026-04-26 17:46 | 31.31073 | 27.23899 | 31017 ft | 505 kts | 131° |
| 2026-04-26 17:47 | 31.28397 | 27.28432 | 31016 ft | 507 kts | 127° |
| 2026-04-26 17:47 | 31.23133 | 27.37516 | 31014 ft | 507 kts | 128° |
| 2026-04-26 17:48 | 31.19162 | 27.44341 | 31014 ft | 508 kts | 128° |
| 2026-04-26 17:48 | 31.15194 | 27.51156 | 31014 ft | 508 kts | 128° |
| 2026-04-26 17:49 | 31.11214 | 27.57971 | 31011 ft | 508 kts | 128° |
| 2026-04-26 17:49 | 31.07176 | 27.64741 | 31013 ft | 508 kts | 129° |
| 2026-04-26 17:50 | 31.03116 | 27.71486 | 31007 ft | 509 kts | 129° |
| 2026-04-26 17:50 | 30.99053 | 27.78259 | 31005 ft | 510 kts | 129° |
| 2026-04-26 17:51 | 30.94991 | 27.85039 | 31000 ft | 511 kts | 129° |
| 2026-04-26 17:51 | 30.91610 | 27.90680 | 31000 ft | 511 kts | 129° |
| 2026-04-26 17:52 | 30.87535 | 27.97473 | 30994 ft | 512 kts | 129° |
| 2026-04-26 17:52 | 30.82789 | 28.05349 | 30995 ft | 511 kts | 130° |
| 2026-04-26 17:53 | 30.78708 | 28.12125 | 31002 ft | 511 kts | 130° |
| 2026-04-26 17:54 | 30.73242 | 28.21174 | 30998 ft | 511 kts | 130° |
| 2026-04-26 17:54 | 30.69172 | 28.27891 | 30996 ft | 512 kts | 130° |
| 2026-04-26 17:55 | 30.65065 | 28.34665 | 30995 ft | 513 kts | 130° |
| 2026-04-26 17:55 | 30.60951 | 28.41426 | 30993 ft | 513 kts | 130° |
| 2026-04-26 17:56 | 30.56826 | 28.48176 | 30993 ft | 513 kts | 130° |
| 2026-04-26 17:57 | 30.48588 | 28.61716 | 30995 ft | 514 kts | 130° |
| 2026-04-26 17:57 | 30.44453 | 28.68455 | 30997 ft | 513 kts | 131° |
| 2026-04-26 17:58 | 30.36184 | 28.81911 | 30993 ft | 513 kts | 131° |
| 2026-04-26 17:59 | 30.29981 | 28.91986 | 30994 ft | 512 kts | 131° |
| 2026-04-26 17:59 | 30.25843 | 28.98697 | 31000 ft | 512 kts | 131° |
| 2026-04-26 18:00 | 30.21729 | 29.05354 | 30990 ft | 512 kts | 131° |
| 2026-04-26 18:00 | 30.17563 | 29.12091 | 30993 ft | 512 kts | 131° |
| 2026-04-26 18:01 | 30.13460 | 29.18740 | 30990 ft | 512 kts | 131° |
| 2026-04-26 18:01 | 30.09352 | 29.25454 | 30987 ft | 511 kts | 131° |
| 2026-04-26 18:02 | 30.05954 | 29.31117 | 30986 ft | 512 kts | 131° |
| 2026-04-26 18:02 | 30.01247 | 29.38966 | 30985 ft | 512 kts | 131° |
| 2026-04-26 18:03 | 29.97177 | 29.45713 | 30984 ft | 513 kts | 131° |
| 2026-04-26 18:03 | 29.93084 | 29.52444 | 30978 ft | 513 kts | 132° |
| 2026-04-26 18:04 | 29.88977 | 29.59181 | 30985 ft | 514 kts | 132° |
| 2026-04-26 18:05 | 29.82812 | 29.69282 | 30996 ft | 514 kts | 132° |
| 2026-04-26 18:05 | 29.78705 | 29.76022 | 30994 ft | 514 kts | 132° |
| 2026-04-26 18:06 | 29.74592 | 29.82756 | 30985 ft | 514 kts | 132° |
| 2026-04-26 18:06 | 29.70479 | 29.89466 | 30982 ft | 513 kts | 132° |
| 2026-04-26 18:07 | 29.66366 | 29.96171 | 30980 ft | 513 kts | 132° |
| 2026-04-26 18:07 | 29.62252 | 30.02877 | 30975 ft | 513 kts | 132° |
| 2026-04-26 18:08 | 29.58129 | 30.09569 | 30979 ft | 513 kts | 132° |
| 2026-04-26 18:08 | 29.54007 | 30.16242 | 30983 ft | 513 kts | 132° |
| 2026-04-26 18:09 | 29.49885 | 30.22915 | 30981 ft | 512 kts | 132° |
| 2026-04-26 18:09 | 29.45763 | 30.29588 | 30979 ft | 512 kts | 133° |
| 2026-04-26 18:10 | 29.41638 | 30.36239 | 30977 ft | 512 kts | 133° |
| 2026-04-26 18:10 | 29.37167 | 30.42408 | 30975 ft | 502 kts | 142° |
| 2026-04-26 18:11 | 29.32296 | 30.48225 | 30973 ft | 503 kts | 142° |
| 2026-04-26 18:11 | 29.27446 | 30.53998 | 30975 ft | 502 kts | 142° |
| 2026-04-26 18:12 | 29.22632 | 30.59722 | 30976 ft | 502 kts | 142° |
| 2026-04-26 18:12 | 29.17782 | 30.65493 | 30977 ft | 503 kts | 142° |
| 2026-04-26 18:13 | 29.12925 | 30.71256 | 30975 ft | 503 kts | 142° |
| 2026-04-26 18:13 | 29.08065 | 30.77011 | 30977 ft | 504 kts | 142° |
| 2026-04-26 18:14 | 29.03194 | 30.82782 | 30980 ft | 504 kts | 142° |
| 2026-04-26 18:14 | 28.98323 | 30.88542 | 30978 ft | 504 kts | 142° |
| 2026-04-26 18:15 | 28.93449 | 30.94292 | 30982 ft | 504 kts | 142° |
| 2026-04-26 18:15 | 28.88559 | 31.00045 | 30984 ft | 505 kts | 142° |
| 2026-04-26 18:16 | 28.83675 | 31.05794 | 30990 ft | 505 kts | 142° |
| 2026-04-26 18:16 | 28.76342 | 31.14421 | 30996 ft | 504 kts | 142° |
| 2026-04-26 18:17 | 28.71456 | 31.20147 | 30992 ft | 504 kts | 143° |
| 2026-04-26 18:17 | 28.66619 | 31.25940 | 30989 ft | 506 kts | 141° |
| 2026-04-26 18:18 | 28.61916 | 31.31926 | 30992 ft | 507 kts | 140° |
| 2026-04-26 18:18 | 28.57248 | 31.37934 | 30992 ft | 507 kts | 140° |
| 2026-04-26 18:19 | 28.52563 | 31.43860 | 30990 ft | 507 kts | 141° |
| 2026-04-26 18:19 | 28.47816 | 31.49790 | 30993 ft | 507 kts | 141° |
| 2026-04-26 18:20 | 28.43065 | 31.55724 | 30999 ft | 508 kts | 141° |
| 2026-04-26 18:20 | 28.39093 | 31.60702 | 31005 ft | 508 kts | 141° |
| 2026-04-26 18:21 | 28.33579 | 31.67596 | 31003 ft | 507 kts | 141° |
| 2026-04-26 18:21 | 28.28828 | 31.73520 | 30997 ft | 507 kts | 141° |
| 2026-04-26 18:22 | 28.24075 | 31.79434 | 30995 ft | 507 kts | 141° |
| 2026-04-26 18:22 | 28.19325 | 31.85343 | 30999 ft | 507 kts | 141° |
| 2026-04-26 18:23 | 28.14570 | 31.91262 | 30993 ft | 507 kts | 141° |
| 2026-04-26 18:23 | 28.09813 | 31.97162 | 30990 ft | 507 kts | 141° |
| 2026-04-26 18:24 | 28.05053 | 32.03067 | 30986 ft | 509 kts | 139° |
| 2026-04-26 18:24 | 28.01078 | 32.09850 | 30986 ft | 525 kts | 125° |
| 2026-04-26 18:25 | 27.97595 | 32.17122 | 30989 ft | 526 kts | 125° |
| 2026-04-26 18:25 | 27.94102 | 32.24384 | 30988 ft | 526 kts | 125° |
| 2026-04-26 18:26 | 27.90597 | 32.31641 | 30985 ft | 525 kts | 126° |
| 2026-04-26 18:26 | 27.87079 | 32.38878 | 30981 ft | 525 kts | 126° |
| 2026-04-26 18:27 | 27.83594 | 32.46064 | 30978 ft | 525 kts | 125° |
| 2026-04-26 18:27 | 27.80088 | 32.53296 | 30975 ft | 525 kts | 126° |
| 2026-04-26 18:28 | 27.76570 | 32.60513 | 30962 ft | 524 kts | 126° |
| 2026-04-26 18:28 | 27.73026 | 32.67773 | 30747 ft | 526 kts | 125° |
| 2026-04-26 18:29 | 27.71278 | 32.71341 | 30267 ft | 524 kts | 126° |
| 2026-04-26 18:29 | 27.69507 | 32.74922 | 29769 ft | 522 kts | 126° |
| 2026-04-26 18:29 | 27.67734 | 32.78483 | 29273 ft | 520 kts | 126° |
| 2026-04-26 18:29 | 27.65955 | 32.82018 | 28771 ft | 517 kts | 126° |
| 2026-04-26 18:30 | 27.64172 | 32.85538 | 28277 ft | 517 kts | 126° |
| 2026-04-26 18:30 | 27.62380 | 32.89055 | 27772 ft | 517 kts | 126° |
| 2026-04-26 18:30 | 27.60585 | 32.92561 | 27273 ft | 517 kts | 126° |
| 2026-04-26 18:30 | 27.58782 | 32.96067 | 26773 ft | 517 kts | 126° |
| 2026-04-26 18:31 | 27.56971 | 32.99566 | 26277 ft | 517 kts | 126° |
| 2026-04-26 18:31 | 27.55155 | 33.03061 | 25771 ft | 517 kts | 126° |
| 2026-04-26 18:31 | 27.53331 | 33.06549 | 25266 ft | 516 kts | 126° |
| 2026-04-26 18:31 | 27.51496 | 33.10027 | 24780 ft | 516 kts | 126° |
| 2026-04-26 18:32 | 27.49659 | 33.13495 | 24266 ft | 515 kts | 126° |
| 2026-04-26 18:32 | 27.47824 | 33.16949 | 23766 ft | 512 kts | 126° |
| 2026-04-26 18:32 | 27.46008 | 33.20366 | 23258 ft | 507 kts | 126° |
| 2026-04-26 18:32 | 27.44206 | 33.23750 | 22767 ft | 501 kts | 126° |
| 2026-04-26 18:33 | 27.42422 | 33.27091 | 22259 ft | 496 kts | 126° |
| 2026-04-26 18:33 | 27.40653 | 33.30408 | 21757 ft | 492 kts | 126° |
| 2026-04-26 18:33 | 27.38899 | 33.33691 | 21258 ft | 487 kts | 126° |
| 2026-04-26 18:33 | 27.37159 | 33.36934 | 20759 ft | 482 kts | 126° |
| 2026-04-26 18:34 | 27.35437 | 33.40144 | 20262 ft | 477 kts | 126° |
| 2026-04-26 18:34 | 27.33733 | 33.43328 | 19756 ft | 473 kts | 126° |
| 2026-04-26 18:34 | 27.32048 | 33.46473 | 19262 ft | 468 kts | 126° |
| 2026-04-26 18:34 | 27.30372 | 33.49601 | 18764 ft | 464 kts | 126° |
| 2026-04-26 18:35 | 27.28716 | 33.52688 | 18256 ft | 459 kts | 126° |
| 2026-04-26 18:35 | 27.27073 | 33.55747 | 17758 ft | 455 kts | 126° |
| 2026-04-26 18:35 | 27.25450 | 33.58772 | 17259 ft | 450 kts | 126° |
| 2026-04-26 18:35 | 27.23836 | 33.61770 | 16759 ft | 447 kts | 126° |
| 2026-04-26 18:36 | 27.22235 | 33.64734 | 16257 ft | 440 kts | 126° |
| 2026-04-26 18:36 | 27.20657 | 33.67649 | 15754 ft | 433 kts | 126° |
| 2026-04-26 18:36 | 27.19099 | 33.70515 | 15252 ft | 426 kts | 126° |
| 2026-04-26 18:36 | 27.17565 | 33.73324 | 14737 ft | 420 kts | 126° |
| 2026-04-26 18:37 | 27.16040 | 33.76102 | 14163 ft | 415 kts | 126° |
| 2026-04-26 18:37 | 27.14531 | 33.78837 | 13593 ft | 411 kts | 126° |
| 2026-04-26 18:37 | 27.13025 | 33.81565 | 13009 ft | 408 kts | 126° |
| 2026-04-26 18:37 | 27.11534 | 33.84255 | 12433 ft | 404 kts | 126° |
| 2026-04-26 18:38 | 27.10051 | 33.86915 | 11859 ft | 401 kts | 126° |
| 2026-04-26 18:38 | 27.08568 | 33.89556 | 11283 ft | 398 kts | 126° |
| 2026-04-26 18:38 | 27.07094 | 33.92156 | 10718 ft | 391 kts | 126° |
| 2026-04-26 18:38 | 27.05655 | 33.94674 | 10142 ft | 377 kts | 126° |
| 2026-04-26 18:39 | 27.04256 | 33.97100 | 9566 ft | 364 kts | 125° |
| 2026-04-26 18:39 | 27.02889 | 33.99447 | 8993 ft | 354 kts | 125° |
| 2026-04-26 18:39 | 27.01434 | 34.01601 | 8422 ft | 341 kts | 139° |
| 2026-04-26 18:39 | 26.99516 | 34.02991 | 7863 ft | 319 kts | 163° |
| 2026-04-26 18:40 | 26.98124 | 34.03356 | 7526 ft | 303 kts | 178° |
| 2026-04-26 18:40 | 26.96074 | 34.03385 | 7045 ft | 292 kts | 184° |
| 2026-04-26 18:40 | 26.94061 | 34.03315 | 6538 ft | 286 kts | 185° |
| 2026-04-26 18:40 | 26.92093 | 34.03235 | 6100 ft | 278 kts | 185° |
| 2026-04-26 18:41 | 26.90185 | 34.03096 | 6010 ft | 272 kts | 194° |
| 2026-04-26 18:41 | 26.88465 | 34.02263 | 5737 ft | 270 kts | 220° |
| 2026-04-26 18:41 | 26.87315 | 34.00663 | 5365 ft | 265 kts | 247° |
| 2026-04-26 18:41 | 26.86997 | 33.98665 | 4991 ft | 263 kts | 275° |
| 2026-04-26 18:42 | 26.87516 | 33.96724 | 4687 ft | 259 kts | 292° |
| 2026-04-26 18:42 | 26.88272 | 33.94915 | 4436 ft | 254 kts | 294° |
| 2026-04-26 18:42 | 26.89194 | 33.93261 | 4176 ft | 250 kts | 312° |
| 2026-04-26 18:42 | 26.90478 | 33.91972 | 3928 ft | 246 kts | 317° |
| 2026-04-26 18:43 | 26.91755 | 33.90747 | 3717 ft | 237 kts | 317° |
| 2026-04-26 18:43 | 26.92989 | 33.89570 | 3450 ft | 229 kts | 317° |
| 2026-04-26 18:43 | 26.94184 | 33.88427 | 3192 ft | 223 kts | 317° |
| 2026-04-26 18:43 | 26.95338 | 33.87323 | 3041 ft | 210 kts | 317° |
| 2026-04-26 18:44 | 26.96417 | 33.86287 | 3004 ft | 200 kts | 316° |
| 2026-04-26 18:44 | 26.97526 | 33.85364 | 2998 ft | 199 kts | 330° |
| 2026-04-26 18:44 | 26.98811 | 33.84788 | 3005 ft | 199 kts | 340° |
| 2026-04-26 18:44 | 27.00125 | 33.84352 | 3003 ft | 199 kts | 342° |
| 2026-04-26 18:45 | 27.01485 | 33.83948 | 2931 ft | 201 kts | 343° |
| 2026-04-26 18:45 | 27.02834 | 33.83554 | 2721 ft | 200 kts | 343° |
| 2026-04-26 18:45 | 27.04184 | 33.83143 | 2473 ft | 202 kts | 343° |
| 2026-04-26 18:45 | 27.05555 | 33.82746 | 2208 ft | 204 kts | 344° |
| 2026-04-26 18:46 | 27.06915 | 33.82348 | 1965 ft | 195 kts | 345° |
| 2026-04-26 18:46 | 27.08130 | 33.81985 | 1709 ft | 174 kts | 346° |
| 2026-04-26 18:46 | 27.09270 | 33.81649 | 1476 ft | 165 kts | 347° |
| 2026-04-26 18:46 | 27.10364 | 33.81326 | 1275 ft | 161 kts | 348° |
| 2026-04-26 18:47 | 27.11426 | 33.81007 | 1071 ft | 154 kts | 350° |
| 2026-04-26 18:47 | 27.12417 | 33.80715 | 889 ft | 141 kts | 346° |
| 2026-04-26 18:47 | 27.13360 | 33.80439 | 669 ft | 139 kts | 346° |
| 2026-04-26 18:47 | 27.14301 | 33.80158 | 482 ft | 141 kts | 346° |
| 2026-04-26 18:48 | 27.15248 | 33.79879 | 308 ft | 140 kts | 347° |
| 2026-04-26 18:48 | 27.16182 | 33.79602 | 123 ft | 137 kts | 347° |
| 2026-04-26 18:48 | 27.17015 | 33.79359 | 109 ft | 104 kts | 345° |
| 2026-04-26 18:48 | 27.17532 | 33.79204 | 101 ft | 52 kts | 345° |
| 2026-04-26 18:49 | 27.17781 | 33.79153 | 99 ft | 27 kts | 4° |
| 2026-04-26 18:49 | 27.17924 | 33.79186 | 98 ft | 7 kts | 15° |
| 2026-04-26 18:49 | 27.17962 | 33.79230 | 98 ft | 13 kts | 80° |
| 2026-04-26 18:49 | 27.17886 | 33.79297 | 95 ft | 16 kts | 163° |
| 2026-04-26 18:50 | 27.17781 | 33.79328 | 96 ft | 14 kts | 166° |
| 2026-04-26 18:50 | 27.17678 | 33.79359 | 98 ft | 18 kts | 165° |
| 2026-04-26 18:50 | 27.17542 | 33.79399 | 100 ft | 21 kts | 165° |
| 2026-04-26 18:50 | 27.17408 | 33.79439 | 100 ft | 19 kts | 165° |
| 2026-04-26 18:51 | 27.17294 | 33.79472 | 102 ft | 15 kts | 165° |
| 2026-04-26 18:51 | 27.17241 | 33.79507 | 101 ft | 8 kts | 120° |
| 2026-04-26 18:51 | 27.17253 | 33.79606 | 98 ft | 18 kts | 75° |
| 2026-04-26 18:51 | 27.17291 | 33.79766 | 71 ft | 24 kts | 75° |
| 2026-04-26 18:52 | 27.17335 | 33.79949 | 54 ft | 21 kts | 75° |
| 2026-04-26 18:52 | 27.17369 | 33.80092 | 54 ft | 19 kts | 75° |
| 2026-04-26 18:52 | 27.17402 | 33.80227 | 53 ft | 14 kts | 74° |
| 2026-04-26 18:52 | 27.17425 | 33.80322 | 51 ft | 8 kts | 75° |
| 2026-04-26 18:53 | 27.17431 | 33.80347 | 48 ft | 0 kts | 75° |
| 2026-04-26 18:53 | 27.17435 | 33.80357 | 51 ft | 5 kts | 64° |
| 2026-04-26 18:53 | 27.17493 | 33.80378 | 53 ft | 11 kts | 348° |
| 2026-04-26 18:54 | 27.17572 | 33.80355 | 55 ft | 16 kts | 345° |
| 2026-04-26 18:54 | 27.17699 | 33.80317 | 52 ft | 19 kts | 345° |
| 2026-04-26 18:54 | 27.17832 | 33.80278 | 52 ft | 20 kts | 345° |
| 2026-04-26 18:54 | 27.17964 | 33.80239 | 54 ft | 19 kts | 345° |
| 2026-04-26 18:55 | 27.18084 | 33.80203 | 53 ft | 13 kts | 345° |
| 2026-04-26 18:55 | 27.18152 | 33.80197 | 53 ft | 9 kts | 25° |
| 2026-04-26 18:55 | 27.18179 | 33.80245 | 51 ft | 8 kts | 72° |
| 2026-04-26 18:55 | 27.18200 | 33.80330 | 58 ft | 14 kts | 75° |
| 2026-04-26 18:56 | 27.18181 | 33.80421 | 56 ft | 12 kts | 146° |
| 2026-04-26 18:56 | 27.18107 | 33.80447 | 54 ft | 11 kts | 165° |
| 2026-04-26 18:56 | 27.18028 | 33.80470 | 57 ft | 13 kts | 165° |
| 2026-04-26 18:56 | 27.17947 | 33.80495 | 52 ft | 11 kts | 165° |
| 2026-04-26 18:57 | 27.17914 | 33.80523 | 58 ft | 4 kts | 96° |
| 2026-04-26 18:57 | 27.17920 | 33.80541 | 58 ft | 4 kts | 71° |
| 2026-04-26 18:57 | 27.17932 | 33.80590 | 53 ft | 3 kts | 76° |
| 2026-04-26 18:57 | 27.17933 | 33.80593 | 53 ft | 1 kts | 76° |
| 2026-04-26 18:58 | 27.17934 | 33.80600 | 52 ft | 0 kts | 76° |